createdAt,value
2022-07-27T00:00:10.066Z,100043.75
2022-07-27T00:05:11.581Z,100036.66
2022-07-27T00:10:13.425Z,100042.50
2022-07-27T00:15:14.897Z,100038.75
2022-07-27T00:20:16.490Z,100038.13
2022-07-27T00:25:17.933Z,100051.19
2022-07-27T00:30:19.706Z,100056.41
2022-07-27T00:35:21.186Z,100051.00
2022-07-27T00:40:22.696Z,100058.94
2022-07-27T00:45:24.258Z,100059.88
2022-07-27T00:50:25.817Z,100065.84
2022-07-27T00:55:27.672Z,100069.13
2022-07-27T01:00:29.205Z,100058.19
2022-07-27T01:05:36.405Z,100056.13
2022-07-27T01:10:40.328Z,100066.19
2022-07-27T01:15:43.423Z,100058.34
2022-07-27T01:20:45.001Z,100069.25
2022-07-27T01:25:46.566Z,100066.00
2022-07-27T01:30:48.143Z,100058.50
2022-07-27T01:35:49.651Z,100072.16
2022-07-27T01:40:53.319Z,100067.03
2022-07-27T01:45:56.086Z,100062.25
2022-07-27T01:50:57.885Z,100069.28
2022-07-27T01:55:59.427Z,100069.97
2022-07-27T02:01:00.857Z,100067.59
2022-07-27T02:06:03.896Z,100069.28
2022-07-27T02:11:23.958Z,100076.78
2022-07-27T02:16:25.472Z,100071.31
2022-07-27T02:21:27.813Z,100093.94
2022-07-27T02:26:29.331Z,100092.53
2022-07-27T02:31:32.873Z,100099.75
2022-07-27T02:36:34.726Z,100094.00
2022-07-27T02:41:36.170Z,100097.84
2022-07-27T02:46:37.693Z,100090.66
2022-07-27T02:51:39.514Z,100086.91
2022-07-27T02:56:42.545Z,100087.09
2022-07-27T03:01:45.206Z,100078.75
2022-07-27T03:06:46.873Z,100086.13
2022-07-27T03:11:48.372Z,100100.47
2022-07-27T03:16:49.832Z,100098.41
2022-07-27T03:21:51.311Z,100109.13
2022-07-27T03:26:52.848Z,100114.25
2022-07-27T03:31:54.335Z,100115.66
2022-07-27T03:36:55.832Z,100111.22
2022-07-27T03:41:57.300Z,100108.34
2022-07-27T03:46:58.966Z,100097.97
2022-07-27T03:52:00.835Z,100102.75
2022-07-27T03:57:02.368Z,100101.03
2022-07-27T04:02:04.801Z,100093.50
2022-07-27T04:07:06.300Z,100093.84
2022-07-27T04:12:08.210Z,100082.56
2022-07-27T04:17:09.769Z,100078.84
2022-07-27T04:22:11.288Z,100080.88
2022-07-27T04:27:13.848Z,100081.50
2022-07-27T04:32:15.342Z,100082.47
2022-07-27T04:37:16.835Z,100083.09
2022-07-27T04:42:18.358Z,100089.88
2022-07-27T04:47:19.813Z,100092.69
2022-07-27T04:52:26.795Z,100089.53
2022-07-27T04:57:31.429Z,100087.25
2022-07-27T05:02:33.013Z,100081.16
2022-07-27T05:07:34.640Z,100084.16
2022-07-27T05:12:36.069Z,100093.72
2022-07-27T05:17:37.558Z,100103.22
2022-07-27T05:22:39.957Z,100117.38
2022-07-27T05:27:54.038Z,100123.91
2022-07-27T05:32:56.243Z,100132.13
2022-07-27T05:37:57.676Z,100131.28
2022-07-27T05:42:59.588Z,100116.56
2022-07-27T05:48:01.149Z,100104.13
2022-07-27T05:53:02.653Z,100113.78
2022-07-27T05:58:04.943Z,100122.88
2022-07-27T06:03:06.431Z,100128.53
2022-07-27T06:08:10.936Z,100128.75
2022-07-27T06:13:12.509Z,100132.94
2022-07-27T06:18:18.209Z,100137.66
2022-07-27T06:23:19.685Z,100133.09
2022-07-27T06:28:21.956Z,100136.13
2022-07-27T06:33:28.924Z,100151.75
2022-07-27T06:38:30.720Z,100137.94
2022-07-27T06:43:32.414Z,100136.13
2022-07-27T06:48:34.198Z,100147.09
2022-07-27T06:53:37.012Z,100145.84
2022-07-27T06:58:39.029Z,100148.31
2022-07-27T07:03:40.606Z,100150.78
2022-07-27T07:08:42.215Z,100151.72
2022-07-27T07:13:45.157Z,100149.38
2022-07-27T07:18:52.027Z,100144.19
2022-07-27T07:23:54.076Z,100136.97
2022-07-27T07:28:55.524Z,100140.91
2022-07-27T07:33:58.638Z,100133.44
2022-07-27T07:39:00.873Z,100138.25
2022-07-27T07:44:02.366Z,100143.81
2022-07-27T07:49:05.248Z,100149.16
2022-07-27T07:54:06.751Z,100154.06
2022-07-27T07:59:08.343Z,100160.66
2022-07-27T08:04:10.066Z,100162.88
2022-07-27T08:09:13.302Z,100157.56
2022-07-27T08:14:15.060Z,100167.44
2022-07-27T08:19:16.506Z,100159.88
2022-07-27T08:24:17.971Z,100170.66
2022-07-27T08:29:23.106Z,100182.78
2022-07-27T08:34:24.848Z,100174.44
2022-07-27T08:40:19.854Z,100175.25
2022-07-27T08:44:47.853Z,100171.69
2022-07-27T08:49:49.848Z,100163.75
2022-07-27T08:54:51.571Z,100151.97
2022-07-27T08:59:56.757Z,100167.88
2022-07-27T09:04:58.662Z,100170.50
2022-07-27T09:10:00.166Z,100180.66
2022-07-27T09:15:13.374Z,100176.78
2022-07-27T09:20:18.573Z,100177.06
2022-07-27T09:25:38.711Z,100176.41
2022-07-27T09:30:45.346Z,100171.16
2022-07-27T09:35:58.086Z,100168.94
2022-07-27T09:41:06.142Z,100176.13
2022-07-27T09:46:08.063Z,100173.50
2022-07-27T09:51:55.606Z,100165.53
2022-07-27T09:56:33.305Z,100163.44
2022-07-27T10:01:42.233Z,100158.34
2022-07-27T10:07:02.105Z,100159.19
2022-07-27T10:12:04.993Z,100158.34
2022-07-27T10:17:07.596Z,100160.84
2022-07-27T10:22:09.104Z,100153.63
2022-07-27T10:27:30.098Z,100154.94
2022-07-27T10:32:33.325Z,100148.97
2022-07-27T10:37:34.985Z,100155.75
2022-07-27T10:42:36.581Z,100163.00
2022-07-27T10:47:42.714Z,100168.28
2022-07-27T10:52:48.426Z,100172.28
2022-07-27T10:57:49.950Z,100184.16
2022-07-27T11:02:51.434Z,100183.53
2022-07-27T11:08:34.663Z,100181.06
2022-07-27T11:13:14.533Z,100176.78
2022-07-27T11:18:16.214Z,100171.91
2022-07-27T11:28:41.718Z,100173.81
2022-07-27T11:33:56.144Z,100171.91
2022-07-27T11:38:57.597Z,100172.97
2022-07-27T11:44:02.249Z,100170.63
2022-07-27T11:49:08.743Z,100182.13
2022-07-27T11:54:12.301Z,100183.81
2022-07-27T11:59:17.246Z,100191.88
2022-07-27T12:04:38.987Z,100179.13
2022-07-27T12:09:45.734Z,100187.53
2022-07-27T12:14:56.543Z,100177.97
2022-07-27T12:20:04.129Z,100180.81
2022-07-27T12:25:29.692Z,100183.97
2022-07-27T12:30:46.187Z,100186.22
2022-07-27T12:35:47.762Z,100193.09
2022-07-27T12:41:00.194Z,100183.13
2022-07-27T12:46:13.792Z,100176.38
2022-07-27T12:51:23.661Z,100180.09
2022-07-27T12:56:27.742Z,100185.97
2022-07-27T13:01:30.195Z,100191.31
2022-07-27T13:06:31.709Z,100194.22
2022-07-27T13:11:33.196Z,100188.44
2022-07-27T13:16:34.757Z,100183.31
2022-07-27T13:21:36.380Z,100180.41
2022-07-27T13:26:38.426Z,100171.00
2022-07-27T13:31:47.004Z,100171.81
2022-07-27T13:36:51.546Z,100174.31
2022-07-27T13:41:55.068Z,100193.06
2022-07-27T13:46:56.652Z,100183.22
2022-07-27T13:51:58.137Z,100178.25
2022-07-27T13:56:59.572Z,100181.47
2022-07-27T14:02:01.297Z,100190.03
2022-07-27T14:07:02.959Z,100192.63
2022-07-27T14:12:04.951Z,100201.75
2022-07-27T14:17:06.964Z,100210.59
2022-07-27T14:22:10.695Z,100208.69
2022-07-27T14:27:12.177Z,100223.63
2022-07-27T14:32:13.750Z,100214.31
2022-07-27T14:37:15.650Z,100213.75
2022-07-27T14:42:21.943Z,100219.84
2022-07-27T14:47:23.504Z,100232.47
2022-07-27T14:52:25.040Z,100228.31
2022-07-27T14:57:27.513Z,100224.47
2022-07-27T15:02:29.095Z,100225.84
2022-07-27T15:07:30.722Z,100239.13
2022-07-27T15:12:37.539Z,100219.09
2022-07-27T15:17:39.422Z,100215.97
2022-07-27T15:22:40.908Z,100213.19
2022-07-27T15:27:42.665Z,100207.13
2022-07-27T15:32:44.115Z,100213.94
2022-07-27T15:37:54.198Z,100222.88
2022-07-27T15:42:56.474Z,100218.88
2022-07-27T15:47:57.967Z,100210.88
2022-07-27T15:52:59.406Z,100214.56
2022-07-27T15:58:00.904Z,100210.38
2022-07-27T16:03:02.621Z,100208.50
2022-07-27T16:08:04.453Z,100209.78
2022-07-27T16:13:08.866Z,100192.09
2022-07-27T16:18:10.830Z,100200.66
2022-07-27T16:23:18.842Z,100204.13
2022-07-27T16:28:24.943Z,100195.13
2022-07-27T16:33:26.459Z,100176.16
2022-07-27T16:38:28.320Z,100177.00
2022-07-27T16:43:37.393Z,100169.03
2022-07-27T16:48:43.699Z,100163.22
2022-07-27T16:53:48.041Z,100178.00
2022-07-27T16:58:50.019Z,100167.19
2022-07-27T17:03:51.519Z,100175.19
2022-07-27T17:08:53.796Z,100177.66
2022-07-27T17:13:58.896Z,100167.53
2022-07-27T17:19:01.345Z,100179.34
2022-07-27T17:24:02.948Z,100176.19
2022-07-27T17:29:05.373Z,100171.94
2022-07-27T17:34:06.896Z,100181.91
2022-07-27T17:39:09.570Z,100185.25
2022-07-27T17:44:13.293Z,100190.97
2022-07-27T17:49:15.054Z,100188.00
2022-07-27T17:54:16.873Z,100196.00
2022-07-27T17:59:36.990Z,100195.94
2022-07-27T18:04:39.891Z,100209.47
2022-07-27T18:09:41.498Z,100210.53
2022-07-27T18:15:02.900Z,100208.06
2022-07-27T18:20:07.413Z,100207.41
2022-07-27T18:25:09.582Z,100223.63
2022-07-27T18:30:12.311Z,100226.41
2022-07-27T18:35:13.847Z,100227.81
2022-07-27T18:40:15.397Z,100245.97
2022-07-27T18:45:16.883Z,100254.63
2022-07-27T18:50:18.514Z,100255.69
2022-07-27T18:55:22.683Z,100255.38
2022-07-27T19:00:25.724Z,100260.22
2022-07-27T19:05:32.490Z,100264.69
2022-07-27T19:10:42.982Z,100263.97
2022-07-27T19:15:45.333Z,100273.94
2022-07-27T19:20:47.003Z,100281.44
2022-07-27T19:25:48.563Z,100287.97
2022-07-27T19:30:50.090Z,100287.28
2022-07-27T19:35:52.613Z,100294.66
2022-07-27T19:40:55.006Z,100300.81
2022-07-27T19:45:56.521Z,100301.31
2022-07-27T19:51:03.275Z,100307.06
2022-07-27T19:56:07.988Z,100309.09
2022-07-27T20:01:10.360Z,100291.31
2022-07-27T20:06:14.155Z,100307.38
2022-07-27T20:11:15.771Z,100314.56
2022-07-27T20:16:17.954Z,100321.59
2022-07-27T20:21:22.974Z,100319.69
2022-07-27T20:26:25.169Z,100316.78
2022-07-27T20:31:28.255Z,100327.53
2022-07-27T20:36:29.763Z,100339.13
2022-07-27T20:41:31.275Z,100333.47
2022-07-27T20:46:32.737Z,100336.03
2022-07-27T20:51:35.726Z,100349.50
2022-07-27T20:56:37.636Z,100343.84
2022-07-27T21:01:40.045Z,100348.22
2022-07-27T21:06:41.607Z,100362.19
2022-07-27T21:11:43.212Z,100362.50
2022-07-27T21:16:44.687Z,100364.34
2022-07-27T21:21:46.465Z,100373.19
2022-07-27T21:26:50.528Z,100373.66
2022-07-27T21:31:52.091Z,100380.69
2022-07-27T21:36:53.548Z,100377.91
2022-07-27T21:42:01.457Z,100388.97
2022-07-27T21:47:09.940Z,100402.72
2022-07-27T21:52:14.752Z,100396.00
2022-07-27T21:57:16.517Z,100398.34
2022-07-27T22:02:17.957Z,100390.78
2022-07-27T22:07:19.704Z,100407.94
2022-07-27T22:12:21.270Z,100417.38
2022-07-27T22:17:22.729Z,100415.97
2022-07-27T22:22:24.236Z,100418.00
2022-07-27T22:27:26.040Z,100428.59
2022-07-27T22:32:27.560Z,100432.34
2022-07-27T22:37:29.006Z,100431.09
2022-07-27T22:42:30.485Z,100433.56
2022-07-27T22:47:32.452Z,100432.16
2022-07-27T22:52:34.575Z,100433.88
2022-07-27T22:57:36.113Z,100435.28
2022-07-27T23:02:37.596Z,100436.13
2022-07-27T23:07:39.071Z,100443.06
2022-07-27T23:12:40.763Z,100433.34
2022-07-27T23:17:42.245Z,100430.44
2022-07-27T23:22:44.473Z,100429.59
2022-07-27T23:27:52.081Z,100425.28
2022-07-27T23:32:54.587Z,100419.84
2022-07-27T23:37:56.146Z,100419.53
2022-07-27T23:42:57.618Z,100422.91
2022-07-27T23:47:59.056Z,100424.84
2022-07-27T23:53:00.507Z,100427.66
2022-07-27T23:58:01.943Z,100420.19
